Time;durP1;ratioP1;P1;durP2;ratioP2;P2;SDS_P1;SDS_P2;PMS_P1;PMS_P2;Temp;Humidity;BMP_temperature;BMP_pressure;BME280_temperature;BME280_humidity;BME280_pressure;Samples;Min_cycle;Max_cycle;Signal;HPM_P1;HPM_P2
2021/01/19 00:01:51;;;;;;;4.80;4.30;;;7.10;99.90;;;;;;5076970;28;20255;-80
2021/01/19 00:04:17;;;;;;;4.90;3.90;;;7.10;99.90;;;;;;5082295;28;20193;-81
2021/01/19 00:06:43;;;;;;;4.75;4.28;;;7.10;99.90;;;;;;5094298;28;20255;-82
2021/01/19 00:09:10;;;;;;;5.53;3.75;;;7.10;99.90;;;;;;5086913;28;20653;-81
2021/01/19 00:11:36;;;;;;;4.93;4.05;;;7.10;99.90;;;;;;5087603;28;20287;-81
2021/01/19 00:14:03;;;;;;;7.47;4.60;;;7.10;99.90;;;;;;5086728;28;20194;-81
2021/01/19 00:16:29;;;;;;;4.57;3.85;;;7.10;99.90;;;;;;5073341;28;20206;-81
2021/01/19 00:18:56;;;;;;;4.60;4.10;;;7.10;99.90;;;;;;5073951;28;20194;-81
2021/01/19 00:21:23;;;;;;;6.95;4.00;;;7.10;99.90;;;;;;5084137;28;20588;-81
2021/01/19 00:23:49;;;;;;;8.85;3.90;;;7.10;99.90;;;;;;5093480;28;20205;-81
2021/01/19 00:26:15;;;;;;;4.25;3.85;;;7.20;99.90;;;;;;5091946;28;20342;-81
2021/01/19 00:28:42;;;;;;;4.43;3.55;;;7.20;99.90;;;;;;5083453;28;20278;-81
2021/01/19 00:31:09;;;;;;;5.38;3.22;;;7.10;99.90;;;;;;5073400;28;20198;-81
2021/01/19 00:33:35;;;;;;;5.90;3.65;;;7.20;99.90;;;;;;5073400;28;20585;-81
2021/01/19 00:36:02;;;;;;;5.85;3.90;;;7.10;99.90;;;;;;5073354;28;20210;-81
2021/01/19 00:38:29;;;;;;;4.63;3.50;;;7.10;99.90;;;;;;5073073;28;20251;-80
2021/01/19 00:40:55;;;;;;;6.30;3.72;;;7.10;99.90;;;;;;5081411;28;20201;-81
2021/01/19 00:43:21;;;;;;;5.30;3.13;;;7.10;99.90;;;;;;5093329;28;20201;-81
2021/01/19 00:45:48;;;;;;;3.60;3.30;;;7.10;99.90;;;;;;5087429;28;20190;-81
2021/01/19 00:48:14;;;;;;;5.00;3.75;;;7.10;99.90;;;;;;5072811;28;20669;-81
2021/01/19 00:50:41;;;;;;;4.55;4.10;;;7.10;99.90;;;;;;5073618;28;20648;-79
2021/01/19 00:53:08;;;;;;;3.85;3.03;;;7.20;99.90;;;;;;5073444;28;20205;-80
2021/01/19 00:55:34;;;;;;;3.35;3.05;;;7.20;99.90;;;;;;5076161;28;20228;-80
2021/01/19 00:58:00;;;;;;;3.63;3.15;;;7.10;99.90;;;;;;5090921;28;20193;-80
2021/01/19 01:00:27;;;;;;;5.28;2.88;;;7.10;99.90;;;;;;5090641;28;20277;-78
2021/01/19 01:02:53;;;;;;;5.32;3.22;;;7.10;99.90;;;;;;5094780;28;20646;-79
2021/01/19 01:05:20;;;;;;;4.32;2.28;;;7.10;99.90;;;;;;5101474;28;20197;-78
2021/01/19 01:07:46;;;;;;;4.05;3.00;;;7.10;99.90;;;;;;5082636;28;20221;-79
2021/01/19 01:10:16;;;;;;;3.33;3.00;;;7.10;99.90;;;;;;5073403;28;20210;-79
2021/01/19 01:12:43;;;;;;;4.72;3.22;;;7.10;99.90;;;;;;5092416;28;20194;-78
2021/01/19 01:15:10;;;;;;;6.75;3.53;;;7.10;99.90;;;;;;5093239;28;20193;-80
2021/01/19 01:17:37;;;;;;;4.47;3.35;;;7.10;99.90;;;;;;5076174;28;20285;-80
2021/01/19 01:20:06;;;;;;;5.25;2.75;;;7.10;99.90;;;;;;5073229;28;20796;-81
2021/01/19 01:22:38;;;;;;;4.82;4.03;;;7.10;99.90;;;;;;5072999;28;20209;-80
2021/01/19 01:25:05;;;;;;;3.35;2.38;;;7.10;99.90;;;;;;5073033;28;20206;-80
2021/01/19 01:27:33;;;;;;;4.85;2.70;;;7.10;99.90;;;;;;5072854;28;20656;-80
2021/01/19 01:29:59;;;;;;;4.60;3.25;;;7.20;99.90;;;;;;5078514;28;20214;-80
2021/01/19 01:32:25;;;;;;;5.95;3.90;;;7.10;99.90;;;;;;5071251;28;20202;-78
2021/01/19 01:34:51;;;;;;;5.88;2.92;;;7.10;99.90;;;;;;5072914;28;20577;-78
2021/01/19 01:37:18;;;;;;;6.38;3.42;;;7.10;99.90;;;;;;5072563;28;20229;-78
2021/01/19 01:39:44;;;;;;;5.05;3.33;;;7.10;99.90;;;;;;5085371;28;20687;-77
2021/01/19 01:42:15;;;;;;;6.68;3.05;;;7.10;99.90;;;;;;5091143;28;20206;-77
2021/01/19 01:44:42;;;;;;;4.45;3.30;;;7.10;99.90;;;;;;5092795;28;20201;-78
2021/01/19 01:47:14;;;;;;;3.85;2.97;;;7.20;99.90;;;;;;5076089;28;20193;-77
2021/01/19 01:49:40;;;;;;;3.92;2.63;;;7.10;99.90;;;;;;5072415;28;20673;-77
2021/01/19 01:52:07;;;;;;;4.93;3.03;;;7.10;99.90;;;;;;5073451;28;20206;-77
2021/01/19 01:54:33;;;;;;;10.95;3.50;;;7.10;99.90;;;;;;5072166;28;20266;-77
2021/01/19 01:57:00;;;;;;;7.80;3.00;;;7.10;99.90;;;;;;5072445;28;20202;-78
2021/01/19 01:59:26;;;;;;;5.32;2.95;;;7.10;99.90;;;;;;5092660;28;20185;-78
2021/01/19 02:01:53;;;;;;;6.00;3.17;;;7.10;99.90;;;;;;5092091;28;20186;-78
2021/01/19 02:04:20;;;;;;;4.60;3.03;;;7.10;99.90;;;;;;5084621;28;20200;-77
2021/01/19 02:06:48;;;;;;;4.97;2.88;;;7.10;99.90;;;;;;5092576;28;20544;-77
2021/01/19 02:09:22;;;;;;;5.97;2.70;;;7.10;99.90;;;;;;5072398;28;20239;-78
2021/01/19 02:11:53;;;;;;;4.18;3.00;;;7.10;99.90;;;;;;5089000;28;20499;-77
2021/01/19 02:14:27;;;;;;;5.43;3.25;;;7.10;99.90;;;;;;5092023;28;20202;-77
2021/01/19 02:17:21;;;;;;;6.30;2.60;;;7.10;99.90;;;;;;5081247;28;20187;-77
2021/01/19 02:20:12;;;;;;;4.85;3.40;;;7.10;99.90;;;;;;5071968;28;20273;-77
2021/01/19 02:23:10;;;;;;;3.67;2.67;;;7.10;99.90;;;;;;5071923;28;20198;-79
2021/01/19 02:26:10;;;;;;;3.78;3.00;;;7.10;99.90;;;;;;5072270;28;20209;-80
2021/01/19 02:28:39;;;;;;;4.40;3.97;;;7.10;99.90;;;;;;5088110;28;20301;-81
2021/01/19 02:31:39;;;;;;;4.90;2.90;;;7.10;99.90;;;;;;5091231;28;20189;-80
2021/01/19 02:34:16;;;;;;;8.02;3.20;;;7.10;99.90;;;;;;5082120;28;20223;-80
2021/01/19 02:36:53;;;;;;;7.03;3.17;;;7.10;99.90;;;;;;5089566;28;20271;-80
2021/01/19 02:39:28;;;;;;;5.43;3.45;;;7.10;99.90;;;;;;5071798;28;20202;-80
2021/01/19 02:41:56;;;;;;;4.43;3.30;;;7.10;99.90;;;;;;5072308;28;20192;-80
2021/01/19 02:44:26;;;;;;;6.55;3.25;;;7.10;99.90;;;;;;5072246;28;20272;-81
2021/01/19 02:46:56;;;;;;;4.60;3.35;;;7.10;99.90;;;;;;5080040;28;20201;-80
2021/01/19 02:49:23;;;;;;;6.25;3.20;;;7.10;99.90;;;;;;5091355;28;20213;-79
2021/01/19 02:51:52;;;;;;;4.25;2.80;;;7.10;99.90;;;;;;5077398;28;20200;-80
2021/01/19 02:54:19;;;;;;;3.35;2.75;;;7.10;99.90;;;;;;5087335;28;20246;-80
2021/01/19 02:56:59;;;;;;;3.03;2.58;;;7.10;99.90;;;;;;5092150;28;20193;-79
2021/01/19 02:59:33;;;;;;;4.50;2.42;;;7.10;99.90;;;;;;5083889;28;20194;-80
2021/01/19 03:02:06;;;;;;;3.60;2.33;;;7.10;99.90;;;;;;5072060;28;20531;-80
2021/01/19 03:04:35;;;;;;;3.28;2.33;;;7.10;99.90;;;;;;5071575;28;20198;-80
2021/01/19 03:07:05;;;;;;;4.25;2.67;;;7.10;99.90;;;;;;5071765;28;20197;-80
2021/01/19 03:09:34;;;;;;;3.97;2.47;;;7.10;99.90;;;;;;5071931;28;20245;-81
2021/01/19 03:12:01;;;;;;;2.97;2.00;;;7.10;99.90;;;;;;5084121;28;20575;-80
2021/01/19 03:14:27;;;;;;;2.58;1.70;;;7.10;99.90;;;;;;5073549;28;20247;-80
2021/01/19 03:17:03;;;;;;;4.95;2.72;;;7.10;99.90;;;;;;5071345;28;20208;-80
2021/01/19 03:19:30;;;;;;;2.72;2.03;;;7.10;99.90;;;;;;5071514;28;20630;-79
2021/01/19 03:21:57;;;;;;;4.22;2.35;;;7.10;99.90;;;;;;5084169;28;20205;-79
2021/01/19 03:24:24;;;;;;;1.88;1.77;;;7.10;99.90;;;;;;5084214;28;20198;-80
2021/01/19 03:26:50;;;;;;;2.80;2.15;;;7.10;99.90;;;;;;5071645;28;20495;-80
2021/01/19 03:29:16;;;;;;;3.03;1.55;;;7.10;99.90;;;;;;5071346;28;20214;-78
2021/01/19 03:31:43;;;;;;;3.53;2.45;;;7.20;99.90;;;;;;5083255;28;20710;-79
2021/01/19 03:34:09;;;;;;;3.20;2.30;;;7.10;99.90;;;;;;5077536;28;20202;-80
2021/01/19 03:36:35;;;;;;;3.10;1.92;;;7.10;99.90;;;;;;5073820;28;20279;-79
2021/01/19 03:39:03;;;;;;;2.78;2.05;;;7.10;99.90;;;;;;5075097;28;20623;-79
2021/01/19 03:41:29;;;;;;;4.63;2.22;;;7.10;99.90;;;;;;5074884;28;20534;-79
2021/01/19 03:43:56;;;;;;;5.38;1.75;;;7.10;99.90;;;;;;5074729;28;20198;-79
2021/01/19 03:46:22;;;;;;;4.57;2.15;;;7.00;99.90;;;;;;5075020;28;20231;-79
2021/01/19 03:48:48;;;;;;;3.90;2.00;;;7.10;99.90;;;;;;5074617;28;20222;-79
2021/01/19 03:51:15;;;;;;;5.03;1.80;;;7.00;99.90;;;;;;5075270;28;20186;-79
2021/01/19 03:53:42;;;;;;;4.00;2.40;;;7.00;99.90;;;;;;5074643;28;20263;-79
2021/01/19 03:56:09;;;;;;;2.35;1.80;;;7.10;99.90;;;;;;5074769;28;20289;-80
2021/01/19 03:58:35;;;;;;;1.85;1.70;;;7.10;99.90;;;;;;5087937;28;20219;-80
2021/01/19 04:01:02;;;;;;;3.22;1.55;;;7.10;99.90;;;;;;5094346;28;20194;-80
2021/01/19 04:03:29;;;;;;;5.97;1.77;;;7.00;99.90;;;;;;5094871;28;20198;-81
2021/01/19 04:05:55;;;;;;;2.38;1.80;;;7.10;99.90;;;;;;5078875;28;20250;-80
2021/01/19 04:08:21;;;;;;;4.35;1.95;;;7.10;99.90;;;;;;5074521;28;20213;-80
2021/01/19 04:10:49;;;;;;;3.13;1.60;;;7.10;99.90;;;;;;5092035;28;20189;-79
2021/01/19 04:13:16;;;;;;;3.35;2.15;;;7.10;99.90;;;;;;5094541;28;20735;-80
2021/01/19 04:15:42;;;;;;;2.80;1.30;;;7.10;99.90;;;;;;5076267;28;20208;-79
2021/01/19 04:18:09;;;;;;;2.00;1.80;;;7.10;99.90;;;;;;5078395;28;20198;-79
2021/01/19 04:20:35;;;;;;;2.03;1.60;;;7.00;99.90;;;;;;5079152;28;20623;-79
2021/01/19 04:23:02;;;;;;;1.90;1.40;;;7.00;99.90;;;;;;5074283;28;20194;-79
2021/01/19 04:25:28;;;;;;;2.63;1.45;;;7.00;99.90;;;;;;5074144;28;20213;-80
2021/01/19 04:27:55;;;;;;;5.30;1.65;;;7.00;99.90;;;;;;5077319;28;20772;-79
2021/01/19 04:30:22;;;;;;;2.40;2.03;;;7.00;99.90;;;;;;5094154;28;20213;-79
2021/01/19 04:32:49;;;;;;;3.97;1.58;;;7.00;99.90;;;;;;5093938;28;20204;-79
2021/01/19 04:35:15;;;;;;;5.78;2.22;;;7.00;99.90;;;;;;5085707;28;20210;-79
2021/01/19 04:37:42;;;;;;;3.42;2.10;;;7.20;99.90;;;;;;5073669;28;20229;-79
2021/01/19 04:40:10;;;;;;;2.47;2.28;;;7.00;99.90;;;;;;5093811;28;20193;-79
2021/01/19 04:42:37;;;;;;;3.78;1.50;;;7.00;99.90;;;;;;5094049;28;20185;-80
2021/01/19 04:45:06;;;;;;;5.75;1.65;;;6.90;99.90;;;;;;5090874;28;20208;-79
2021/01/19 04:47:34;;;;;;;1.70;1.30;;;6.90;99.90;;;;;;5093791;28;20198;-80
2021/01/19 04:50:03;;;;;;;3.10;1.85;;;7.00;99.90;;;;;;5089791;28;20217;-80
2021/01/19 04:52:31;;;;;;;1.90;1.70;;;7.00;99.90;;;;;;5074974;28;20224;-79
2021/01/19 04:55:04;;;;;;;4.60;1.90;;;7.00;99.90;;;;;;5073190;28;20194;-79
2021/01/19 04:57:32;;;;;;;5.25;1.73;;;7.00;99.90;;;;;;5078051;28;20208;-80
2021/01/19 05:00:04;;;;;;;2.85;1.70;;;7.00;99.90;;;;;;5092196;28;20194;-80
2021/01/19 05:02:53;;;;;;;4.22;1.40;;;7.00;99.90;;;;;;5092789;28;20672;-80
2021/01/19 05:05:33;;;;;;;2.05;1.17;;;7.00;99.90;;;;;;5092797;28;20184;-79
2021/01/19 05:08:25;;;;;;;2.47;1.45;;;7.00;99.90;;;;;;5090034;28;20190;-80
2021/01/19 05:10:56;;;;;;;3.45;1.75;;;6.90;99.90;;;;;;5073353;28;20194;-80
2021/01/19 05:13:48;;;;;;;4.32;1.77;;;7.00;99.90;;;;;;5073072;28;20630;-80
2021/01/19 05:16:15;;;;;;;4.57;2.00;;;7.00;99.90;;;;;;5072727;28;20634;-79
2021/01/19 05:18:43;;;;;;;3.47;1.50;;;7.00;99.90;;;;;;5073237;28;20194;-79
2021/01/19 05:21:10;;;;;;;2.88;2.15;;;6.90;99.90;;;;;;5079740;28;20205;-79
2021/01/19 05:23:36;;;;;;;4.65;1.92;;;6.90;99.90;;;;;;5091052;28;20529;-80
2021/01/19 05:26:05;;;;;;;1.65;1.55;;;7.00;99.90;;;;;;5072758;28;20266;-79
2021/01/19 05:28:35;;;;;;;4.60;1.60;;;6.90;99.90;;;;;;5078035;28;20193;-79
2021/01/19 05:31:04;;;;;;;2.38;1.35;;;6.90;99.90;;;;;;5086749;28;20282;-80
2021/01/19 05:33:30;;;;;;;3.47;1.40;;;6.90;99.90;;;;;;5072637;28;20209;-80
2021/01/19 05:36:09;;;;;;;2.65;1.35;;;6.90;99.90;;;;;;5076843;28;20193;-79
2021/01/19 05:38:49;;;;;;;2.65;1.58;;;6.90;99.90;;;;;;5090087;28;20207;-78
2021/01/19 05:41:29;;;;;;;1.80;1.30;;;6.90;99.90;;;;;;5091105;28;20189;-79
2021/01/19 05:43:56;;;;;;;5.97;1.60;;;6.90;99.90;;;;;;5076812;28;20182;-79
2021/01/19 05:46:27;;;;;;;7.00;1.65;;;7.00;99.90;;;;;;5072430;28;20285;-77
2021/01/19 05:49:00;;;;;;;2.35;1.30;;;6.90;99.90;;;;;;5080190;28;20198;-78
2021/01/19 05:51:31;;;;;;;2.03;1.25;;;6.90;99.90;;;;;;5089247;28;20201;-77
2021/01/19 05:53:58;;;;;;;5.95;2.17;;;6.90;99.90;;;;;;5072482;28;20285;-77
2021/01/19 05:56:26;;;;;;;2.90;1.33;;;6.90;99.90;;;;;;5071988;28;20293;-78
2021/01/19 05:58:52;;;;;;;3.13;1.60;;;6.90;99.90;;;;;;5082695;28;20197;-77
2021/01/19 06:01:30;;;;;;;3.90;1.58;;;6.90;99.90;;;;;;5079465;28;20223;-78
2021/01/19 06:03:59;;;;;;;3.10;1.85;;;6.90;99.90;;;;;;5092068;28;20237;-80
2021/01/19 06:06:26;;;;;;;3.25;2.55;;;7.00;99.90;;;;;;5092290;28;20254;-80
2021/01/19 06:09:01;;;;;;;3.30;1.50;;;6.90;99.90;;;;;;5083418;28;20291;-80
2021/01/19 06:11:28;;;;;;;2.60;1.88;;;6.90;99.90;;;;;;5072151;28;20700;-80
2021/01/19 06:13:55;;;;;;;2.63;1.38;;;6.90;99.90;;;;;;5073463;28;20512;-80
2021/01/19 06:16:23;;;;;;;3.63;1.30;;;7.00;99.90;;;;;;5080214;28;20263;-80
2021/01/19 06:18:50;;;;;;;5.03;1.50;;;6.90;99.90;;;;;;5081436;28;20197;-80
2021/01/19 06:21:34;;;;;;;5.90;1.80;;;6.90;99.90;;;;;;5092364;28;20201;-80
2021/01/19 06:24:01;;;;;;;4.80;1.50;;;6.90;99.90;;;;;;5087483;28;20190;-80
2021/01/19 06:26:28;;;;;;;3.35;1.30;;;6.90;99.90;;;;;;5072031;28;20278;-80
2021/01/19 06:28:54;;;;;;;3.10;1.67;;;6.90;99.90;;;;;;5071607;28;20244;-81
2021/01/19 06:31:22;;;;;;;4.93;1.95;;;6.90;99.90;;;;;;5072059;28;20205;-79
2021/01/19 06:33:50;;;;;;;1.50;1.30;;;6.90;99.90;;;;;;5074187;28;20599;-79
2021/01/19 06:36:17;;;;;;;2.13;1.55;;;6.90;99.90;;;;;;5084430;28;20186;-77
2021/01/19 06:38:45;;;;;;;4.60;1.58;;;6.90;99.90;;;;;;5090911;28;20197;-78
2021/01/19 06:41:15;;;;;;;3.70;1.50;;;6.90;99.90;;;;;;5092294;28;20528;-78
2021/01/19 06:43:46;;;;;;;5.43;1.30;;;6.90;99.90;;;;;;5091242;28;20350;-79
2021/01/19 06:46:14;;;;;;;1.85;1.65;;;6.90;99.90;;;;;;5092010;28;20491;-79
2021/01/19 06:48:43;;;;;;;4.25;1.80;;;6.90;99.90;;;;;;5088546;28;20750;-78
2021/01/19 06:51:12;;;;;;;4.28;1.65;;;6.90;99.90;;;;;;5091696;28;20193;-78
2021/01/19 06:53:44;;;;;;;4.20;1.30;;;6.90;99.90;;;;;;5087020;28;20198;-80
2021/01/19 06:56:16;;;;;;;2.85;1.40;;;6.90;99.90;;;;;;5091888;28;20192;-79
2021/01/19 06:58:49;;;;;;;2.45;1.48;;;6.90;99.90;;;;;;5088424;28;20205;-80
2021/01/19 07:01:17;;;;;;;4.93;1.42;;;6.90;99.90;;;;;;5091955;28;20272;-80
2021/01/19 07:03:44;;;;;;;2.85;1.52;;;6.90;99.90;;;;;;5078078;28;20198;-80
2021/01/19 07:06:12;;;;;;;6.20;2.22;;;6.90;99.90;;;;;;5074734;28;20207;-80
2021/01/19 07:09:15;;;;;;;3.83;1.70;;;6.90;99.90;;;;;;5093122;28;20204;-83
2021/01/19 07:12:07;;;;;;;7.60;1.75;;;6.90;99.90;;;;;;5071550;28;20200;-82
2021/01/19 07:14:44;;;;;;;3.53;1.60;;;6.90;99.90;;;;;;5092169;28;20587;-84
2021/01/19 07:17:17;;;;;;;2.25;1.20;;;7.20;99.90;;;;;;5087361;28;20186;-84
2021/01/19 07:19:48;;;;;;;2.20;1.60;;;6.90;99.90;;;;;;5075422;28;20174;-81
2021/01/19 07:22:49;;;;;;;3.20;1.50;;;6.90;99.90;;;;;;5093431;28;20312;-82
2021/01/19 07:25:16;;;;;;;5.43;1.83;;;6.90;99.90;;;;;;5096002;28;20789;-81
2021/01/19 07:27:45;;;;;;;1.58;1.27;;;6.90;99.90;;;;;;5095230;28;20198;-82
2021/01/19 07:30:12;;;;;;;8.32;1.52;;;6.90;99.90;;;;;;5075337;28;20729;-82
2021/01/19 07:32:40;;;;;;;1.17;1.08;;;6.80;99.90;;;;;;5091336;28;20194;-82
2021/01/19 07:35:07;;;;;;;4.35;1.50;;;6.90;99.90;;;;;;5093162;28;20194;-82
2021/01/19 07:37:34;;;;;;;2.00;1.20;;;6.90;99.90;;;;;;5074571;28;20225;-82
2021/01/19 07:40:02;;;;;;;1.63;1.52;;;6.90;99.90;;;;;;5075060;28;20229;-82
2021/01/19 07:42:32;;;;;;;4.03;1.50;;;7.00;99.90;;;;;;5075097;28;20558;-82
2021/01/19 07:45:03;;;;;;;4.82;1.45;;;6.90;99.90;;;;;;5091411;28;20593;-81
2021/01/19 07:47:36;;;;;;;3.92;1.75;;;6.90;99.90;;;;;;5086103;28;20193;-80
2021/01/19 07:50:05;;;;;;;1.45;1.20;;;6.90;99.90;;;;;;5079158;28;20202;-81
2021/01/19 07:52:39;;;;;;;3.15;1.15;;;6.90;99.90;;;;;;5074994;28;20268;-80
2021/01/19 07:55:17;;;;;;;2.25;1.35;;;6.90;99.90;;;;;;5084477;28;20194;-80
2021/01/19 07:57:44;;;;;;;3.58;1.10;;;6.90;99.90;;;;;;5088195;28;20193;-81
2021/01/19 08:00:13;;;;;;;1.95;1.50;;;6.90;99.90;;;;;;5075408;28;20202;-83
2021/01/19 08:02:39;;;;;;;1.35;1.20;;;6.80;99.90;;;;;;5105384;28;20193;-84
2021/01/19 08:05:07;;;;;;;2.85;1.30;;;6.80;99.90;;;;;;5085924;28;20247;-82
2021/01/19 08:07:41;;;;;;;1.63;1.20;;;6.80;99.90;;;;;;5074583;28;20225;-82
2021/01/19 08:10:21;;;;;;;2.40;2.05;;;6.90;99.90;;;;;;5074478;28;20217;-84
2021/01/19 08:12:50;;;;;;;2.45;1.60;;;6.90;99.90;;;;;;5075149;28;20194;-72
2021/01/19 08:15:22;;;;;;;2.10;1.20;;;6.90;99.90;;;;;;5091929;28;20212;-80
2021/01/19 08:17:54;;;;;;;6.53;1.50;;;6.90;99.90;;;;;;5076333;28;20194;-80
2021/01/19 08:20:25;;;;;;;2.75;1.55;;;6.90;99.90;;;;;;5075577;28;20195;-79
2021/01/19 08:22:51;;;;;;;4.15;1.60;;;6.90;99.90;;;;;;5090266;28;20212;-80
2021/01/19 08:25:28;;;;;;;2.45;1.15;;;6.90;99.90;;;;;;5077477;28;20630;-81
2021/01/19 08:27:58;;;;;;;2.22;1.30;;;6.90;99.90;;;;;;5078486;28;20189;-79
2021/01/19 08:30:26;;;;;;;3.35;1.48;;;6.90;99.90;;;;;;5094073;28;20217;-80
2021/01/19 08:32:54;;;;;;;3.42;1.52;;;6.90;99.90;;;;;;5091365;28;20198;-80
2021/01/19 08:35:21;;;;;;;3.45;1.42;;;6.90;99.90;;;;;;5094231;28;20687;-78
2021/01/19 08:37:51;;;;;;;2.05;0.95;;;6.90;99.90;;;;;;5079150;28;20656;-81
2021/01/19 08:40:25;;;;;;;1.92;1.27;;;6.90;99.90;;;;;;5081049;28;20190;-80
2021/01/19 08:42:52;;;;;;;4.60;1.60;;;6.90;99.90;;;;;;5086788;28;20295;-81
2021/01/19 08:45:23;;;;;;;2.97;1.33;;;6.80;99.90;;;;;;5092003;28;20283;-80
2021/01/19 08:47:52;;;;;;;1.65;1.33;;;6.90;99.90;;;;;;5075569;28;20610;-81
2021/01/19 08:50:19;;;;;;;1.63;1.52;;;6.90;99.90;;;;;;5093783;28;20232;-79
2021/01/19 08:52:45;;;;;;;1.40;1.20;;;6.90;99.90;;;;;;5094621;28;20270;-80
2021/01/19 08:55:16;;;;;;;3.47;1.30;;;6.90;99.90;;;;;;5076956;28;20212;-81
2021/01/19 08:57:43;;;;;;;4.07;1.67;;;6.90;99.90;;;;;;5075937;28;20193;-80
2021/01/19 09:00:11;;;;;;;1.77;1.33;;;6.90;99.90;;;;;;5073056;28;20198;-80
2021/01/19 09:02:37;;;;;;;1.35;1.00;;;6.90;99.90;;;;;;5091934;28;20197;-81
2021/01/19 09:05:06;;;;;;;1.58;1.20;;;6.90;99.90;;;;;;5089313;28;20191;-81
2021/01/19 09:07:33;;;;;;;1.30;1.20;;;6.90;99.90;;;;;;5077585;28;20202;-81
2021/01/19 09:09:59;;;;;;;1.40;1.10;;;6.90;99.90;;;;;;5077543;28;20205;-80
2021/01/19 09:12:26;;;;;;;1.85;1.08;;;6.80;99.90;;;;;;5084697;28;20193;-81
2021/01/19 09:14:53;;;;;;;2.03;1.48;;;6.90;99.90;;;;;;5094507;28;20228;-82
2021/01/19 09:17:24;;;;;;;1.65;1.40;;;6.90;99.90;;;;;;5081992;28;20198;-81
2021/01/19 09:20:01;;;;;;;2.25;1.30;;;6.90;99.90;;;;;;5088334;28;20193;-81
2021/01/19 09:22:28;;;;;;;1.80;1.20;;;6.90;99.90;;;;;;5093051;28;20201;-82
2021/01/19 09:24:56;;;;;;;1.20;1.10;;;6.90;99.90;;;;;;5073897;28;20190;-82
2021/01/19 09:27:22;;;;;;;1.35;1.02;;;6.90;99.90;;;;;;5073078;28;20255;-83
2021/01/19 09:29:49;;;;;;;0.98;0.88;;;6.90;99.90;;;;;;5087930;28;20606;-79
2021/01/19 09:32:18;;;;;;;1.92;1.27;;;6.90;99.90;;;;;;5086852;28;20861;-78
2021/01/19 09:34:47;;;;;;;2.00;1.30;;;7.00;99.90;;;;;;5084423;28;20194;-78
2021/01/19 09:37:14;;;;;;;1.10;1.00;;;6.90;99.90;;;;;;5077016;28;20274;-78
2021/01/19 09:39:45;;;;;;;2.65;1.23;;;6.90;99.90;;;;;;5084061;28;20281;-78
2021/01/19 09:42:11;;;;;;;2.70;1.17;;;6.90;99.90;;;;;;5097340;28;20512;-77
2021/01/19 09:44:38;;;;;;;1.60;1.08;;;7.00;99.90;;;;;;5072471;28;20276;-78
2021/01/19 09:47:06;;;;;;;1.40;1.00;;;7.00;99.90;;;;;;5086634;28;20204;-78
2021/01/19 09:49:36;;;;;;;1.83;1.23;;;6.90;99.90;;;;;;5072384;28;20249;-79
2021/01/19 09:52:09;;;;;;;1.40;1.13;;;6.90;99.90;;;;;;5081563;28;20625;-78
2021/01/19 09:54:35;;;;;;;1.02;0.93;;;7.00;99.90;;;;;;5089021;28;20198;-79
2021/01/19 09:57:03;;;;;;;1.88;1.05;;;7.00;99.90;;;;;;5090002;28;20202;-77
2021/01/19 09:59:31;;;;;;;1.10;1.00;;;7.00;99.90;;;;;;5085556;28;20187;-78
2021/01/19 10:01:59;;;;;;;2.35;1.20;;;7.00;99.90;;;;;;5092109;28;20205;-77
2021/01/19 10:04:26;;;;;;;1.92;1.00;;;7.00;99.90;;;;;;5081926;28;20198;-77
2021/01/19 10:07:10;;;;;;;1.42;1.00;;;7.00;99.90;;;;;;5071909;28;20695;-78
2021/01/19 10:09:38;;;;;;;1.33;1.20;;;6.90;99.90;;;;;;5075013;28;20214;-77
2021/01/19 10:12:06;;;;;;;1.73;1.45;;;6.90;99.90;;;;;;5070510;28;20202;-78
2021/01/19 10:14:35;;;;;;;1.55;1.30;;;6.90;99.90;;;;;;5073465;28;20198;-77
2021/01/19 10:17:01;;;;;;;1.42;1.30;;;6.90;99.90;;;;;;5078247;28;20194;-79
2021/01/19 10:19:30;;;;;;;1.30;1.10;;;6.90;99.90;;;;;;5092141;28;20346;-78
2021/01/19 10:21:58;;;;;;;2.75;1.30;;;7.00;99.90;;;;;;5092152;28;20193;-78
2021/01/19 10:24:26;;;;;;;1.60;1.10;;;6.90;99.90;;;;;;5087208;28;20206;-76
2021/01/19 10:27:01;;;;;;;1.60;1.45;;;7.00;99.90;;;;;;5072562;28;20209;-77
2021/01/19 10:29:29;;;;;;;2.08;1.23;;;7.00;99.90;;;;;;5078217;28;20223;-77
2021/01/19 10:32:00;;;;;;;1.60;1.17;;;7.00;99.90;;;;;;5085257;28;20209;-76
2021/01/19 10:34:27;;;;;;;1.60;1.30;;;7.00;99.90;;;;;;5083375;28;20561;-77
2021/01/19 10:36:56;;;;;;;1.20;1.05;;;7.00;99.90;;;;;;5071753;28;20685;-77
2021/01/19 10:39:22;;;;;;;1.15;1.00;;;7.00;99.90;;;;;;5072415;28;20188;-77
2021/01/19 10:41:49;;;;;;;2.20;0.95;;;7.00;99.90;;;;;;5078786;28;20656;-77
2021/01/19 10:44:16;;;;;;;2.50;1.85;;;7.10;99.90;;;;;;5085799;28;20252;-77
2021/01/19 10:46:44;;;;;;;1.55;1.45;;;7.10;99.90;;;;;;5076132;28;20553;-77
2021/01/19 10:49:11;;;;;;;1.50;1.05;;;7.10;99.90;;;;;;5075756;28;20629;-77
2021/01/19 10:51:38;;;;;;;1.85;1.10;;;7.10;99.90;;;;;;5096355;28;20270;-76
2021/01/19 10:54:12;;;;;;;1.30;1.20;;;7.10;99.90;;;;;;5096312;28;20197;-77
2021/01/19 10:56:41;;;;;;;1.67;1.20;;;7.10;99.90;;;;;;5084761;28;20249;-77
2021/01/19 10:59:08;;;;;;;3.25;1.48;;;7.10;99.90;;;;;;5083604;28;20243;-77
2021/01/19 11:01:35;;;;;;;3.15;1.25;;;7.10;99.90;;;;;;5093816;28;20204;-77
2021/01/19 11:04:04;;;;;;;1.08;0.90;;;7.00;99.90;;;;;;5096177;28;20503;-77
2021/01/19 11:06:35;;;;;;;3.83;1.25;;;7.10;99.90;;;;;;5079578;28;20521;-77
2021/01/19 11:09:02;;;;;;;1.17;1.08;;;7.10;99.90;;;;;;5075940;28;20883;-77
2021/01/19 11:11:29;;;;;;;1.50;1.00;;;7.10;99.90;;;;;;5075610;28;20224;-77
2021/01/19 11:14:03;;;;;;;2.60;1.33;;;7.10;99.90;;;;;;5075409;28;20217;-77
2021/01/19 11:16:31;;;;;;;1.58;1.30;;;7.10;99.90;;;;;;5085322;28;20212;-77
2021/01/19 11:19:03;;;;;;;1.70;1.10;;;7.10;99.90;;;;;;5095805;28;20231;-76
2021/01/19 11:21:31;;;;;;;1.55;0.90;;;7.10;99.90;;;;;;5079056;28;20198;-77
2021/01/19 11:23:58;;;;;;;1.25;1.13;;;7.10;99.90;;;;;;5079105;28;20631;-77
2021/01/19 11:26:24;;;;;;;1.67;1.33;;;7.20;99.90;;;;;;5090775;28;20198;-77
2021/01/19 11:28:51;;;;;;;1.70;1.13;;;7.10;99.90;;;;;;5095256;28;20202;-77
2021/01/19 11:31:22;;;;;;;2.05;1.15;;;7.20;99.90;;;;;;5080613;28;20214;-77
2021/01/19 11:33:48;;;;;;;1.60;1.50;;;7.20;99.90;;;;;;5095073;28;20249;-77
2021/01/19 11:36:20;;;;;;;2.30;1.30;;;7.20;99.90;;;;;;5087320;28;20259;-77
2021/01/19 11:38:46;;;;;;;1.30;1.15;;;7.20;99.90;;;;;;5075005;28;20206;-77
2021/01/19 11:41:16;;;;;;;1.63;1.23;;;7.20;99.90;;;;;;5076105;28;20638;-77
2021/01/19 11:43:42;;;;;;;2.40;1.52;;;7.30;99.90;;;;;;5075364;28;20598;-77
2021/01/19 11:46:08;;;;;;;2.00;1.00;;;7.20;99.90;;;;;;5075220;28;20190;-77
2021/01/19 11:48:35;;;;;;;3.38;1.45;;;7.20;99.90;;;;;;5088167;28;20250;-77
2021/01/19 11:51:01;;;;;;;1.52;1.42;;;7.30;99.90;;;;;;5089288;28;20283;-76
2021/01/19 11:53:28;;;;;;;3.20;1.20;;;7.20;99.90;;;;;;5074301;28;20198;-77
2021/01/19 11:55:54;;;;;;;1.70;1.42;;;7.30;99.90;;;;;;5075412;28;20291;-77
2021/01/19 11:58:22;;;;;;;3.65;1.33;;;7.30;99.90;;;;;;5083007;28;20202;-77
2021/01/19 12:00:49;;;;;;;1.80;1.50;;;7.30;99.90;;;;;;5074504;28;20285;-77
2021/01/19 12:03:18;;;;;;;1.55;1.45;;;7.30;99.90;;;;;;5085606;28;20186;-77
2021/01/19 12:05:45;;;;;;;1.70;1.20;;;7.30;99.90;;;;;;5074516;28;20630;-77
2021/01/19 12:08:11;;;;;;;1.85;1.50;;;7.30;99.90;;;;;;5074610;28;20592;-79
2021/01/19 12:10:42;;;;;;;1.25;1.10;;;7.30;99.90;;;;;;5074568;28;20221;-77
2021/01/19 12:13:08;;;;;;;1.42;1.33;;;7.30;99.90;;;;;;5074651;28;20229;-76
2021/01/19 12:15:35;;;;;;;1.80;1.70;;;7.30;99.90;;;;;;5080552;28;20197;-76
2021/01/19 12:18:01;;;;;;;1.13;1.02;;;7.30;99.90;;;;;;5086439;28;20212;-76
2021/01/19 12:20:27;;;;;;;3.53;1.67;;;7.30;99.90;;;;;;5089260;28;20568;-76
2021/01/19 12:22:53;;;;;;;1.65;1.55;;;7.40;99.90;;;;;;5092894;28;20242;-77
2021/01/19 12:25:20;;;;;;;1.83;1.23;;;7.30;99.90;;;;;;5092435;28;20622;-76
2021/01/19 12:27:49;;;;;;;1.38;1.27;;;7.30;99.90;;;;;;5092524;28;20185;-76
2021/01/19 12:30:15;;;;;;;1.92;1.30;;;7.40;99.90;;;;;;5084921;28;20221;-76
2021/01/19 12:32:42;;;;;;;1.27;1.10;;;7.40;99.90;;;;;;5088523;28;20634;-77
2021/01/19 12:35:09;;;;;;;3.00;1.77;;;7.40;99.90;;;;;;5093338;28;20197;-76
2021/01/19 12:37:35;;;;;;;1.83;1.08;;;7.50;99.90;;;;;;5085213;28;20221;-75
2021/01/19 12:40:03;;;;;;;1.50;1.20;;;7.40;99.90;;;;;;5073592;28;20221;-74
2021/01/19 12:42:29;;;;;;;1.17;1.02;;;7.40;99.90;;;;;;5073269;28;20197;-74
2021/01/19 12:44:56;;;;;;;1.30;1.08;;;7.40;99.90;;;;;;5073045;28;20217;-76
2021/01/19 12:47:23;;;;;;;3.60;1.30;;;7.40;99.90;;;;;;5075557;28;20197;-74
2021/01/19 12:49:49;;;;;;;1.80;1.33;;;7.40;99.90;;;;;;5073565;28;20210;-74
2021/01/19 12:52:16;;;;;;;2.75;2.45;;;7.40;99.90;;;;;;5076305;28;20231;-76
2021/01/19 12:54:42;;;;;;;3.38;1.10;;;7.50;99.90;;;;;;5082840;28;20198;-77
2021/01/19 12:57:12;;;;;;;1.30;1.20;;;7.40;99.90;;;;;;5073907;28;20569;-77
2021/01/19 12:59:40;;;;;;;2.60;1.92;;;7.40;99.90;;;;;;5092378;28;20193;-75
2021/01/19 13:02:08;;;;;;;1.70;1.60;;;7.50;99.90;;;;;;5075085;28;20209;-77
2021/01/19 13:04:34;;;;;;;1.48;1.35;;;7.50;99.90;;;;;;5071620;28;20198;-78
2021/01/19 13:07:01;;;;;;;1.30;1.20;;;7.50;99.90;;;;;;5072069;28;20199;-77
2021/01/19 13:09:27;;;;;;;1.42;1.33;;;7.50;99.90;;;;;;5076446;28;20222;-77